Terminal Aerodrome Forecast
Issued by NWS Bismarck, ND

Home | Current Version | Previous Version | Text Only | Print | Product List | Glossary Off
Versions: 1 2 3 4 5 6 7 8 9 10 11 12 13 14 15 16 17 18 19 20 21 22 23 24 25 26

462
FTUS43 KBIS 201135
TAFISN
TAF
KISN 201135Z 2012/2112 25014KT P6SM BKN200 WS020/28045KT
     FM201700 29018G26KT P6SM BKN200
     FM202000 31021G29KT P6SM BKN080=

USA.gov is the U.S. government's official web portal to all federal, state and local government web resources and services.